Pollock, ID

7:50 PM PDT on September 20, 2014 (GMT -0700)
Idaho Cnty AP, Grangeville, I | Change Station
CLOSE
Current Station
Airport
Location: Idaho Cnty AP, Grangeville, I,
Elevation: 3314 ft
Nearby Weather Stations

Elev 3314 ft 45.94 °N, 116.12 °W | Updated 35 minutes ago

Clear
Clear
68 °F
Feels Like 68 °F
N
7
Wind Variable Wind from SSE

Today
High -- | Low -- °F
--% Chance of Precip.
Yesterday
High -- | Low -- °F
Precip. -- in
6:30 AM 6:46 PM
Waning Crescent, 9% visible
Pressure 30.10 in
Visibility 10.0 miles
Clouds Clear
Dew Point 40 °F
Humidity 36%
Rainfall 0.00 in
Snow Depth 0 in , 0 in , 0 in
UV 0 out of 12
Pollen 7.70 out of 12
PM2.5 Good
Flu Activity Not available.
METAR KGIC 210215Z AUTO 15006KT 10SM CLR 20/05 A3010 RMK AO1 T02010047

More Conditions Fewer Conditions

Pressure 30.10 in
Visibility 10.0 miles
Clouds Clear
Dew Point 40 °F
Humidity 36%
Rainfall 0.00 in
Snow Depth 0 in , 0 in , 0 in
UV 0 out of 12
Pollen 7.70 out of 12
PM2.5 Good
Flu Activity Not available.
METAR KGIC 210215Z AUTO 15006KT 10SM CLR 20/05 A3010 RMK AO1 T02010047

More Conditions Fewer Conditions

10-Day Weather Forecast

Almanac

Astronomy

Sep. 20, 2014 Rise Set
Actual Time 6:30 AM PDT 6:46 PM PDT
Civil Twilight 6:00 AM PDT 7:16 PM PDT
Nautical Twilight 5:25 AM PDT 7:50 PM PDT
Astronomical Twilight 4:50 AM PDT 8:26 PM PDT
Moon 3:05 AM PDT (9/20) 4:58 PM PDT (9/20)
Length of Visible Light 13h 15m
Length of Day
12h 16m
Tomorrow will be 3m 8s shorter.
Waning Crescent, 9% of the Moon is Illuminated
Today
Waning Crescent
Sep 24
New
Oct 1
First Quarter
Oct 8
Full
Oct 15
Last Quarter

Today's Extremes

State Highs State Lows

Community

WunderPhotos

Upload Photos

1,755,066 photos uploaded!

WunderBlogs® & News

Nearby

Air Quality

  Air Quality AQ Index Pollutant
Yesterday Good
PM2.5
Current Good
PM2.5
Saturday Moderate
PM2.5
Sunday Moderate
PM2.5
Monday Moderate
PM2.5

Snow Depth

Station Depth Elevation
Bear Canyon 0 in 7900 ft
Lost-Wood Divide 0 in 7900 ft
Dollarhide Summit 0 in 8420 ft
Moscow Mountain 0 in 4700 ft
Mica Creek 1 in 4750 ft

Earthquake Activity

City Distance Mag. Time & Date
No recent earthquake activity has been reported nearby.
Minimum magnitude displayed is 2.5.

Coastal Water Temperatures

Place Temperature
No Stations Reporting

Nearby Weather Stations